Time;durP1;ratioP1;P1;durP2;ratioP2;P2;SDS_P1;SDS_P2;PMS_P1;PMS_P2;Temp;Humidity;BMP_temperature;BMP_pressure;BME280_temperature;BME280_humidity;BME280_pressure;Samples;Min_cycle;Max_cycle;Signal;HPM_P1;HPM_P2
2023/06/07 00:01:08;;;;;;;7.90;6.00;;;13.20;66.70;;;;;;5012718;28;20188;-56
2023/06/07 00:03:34;;;;;;;5.50;4.90;;;13.20;67.30;;;;;;5013788;28;20207;-55
2023/06/07 00:06:03;;;;;;;6.17;4.60;;;13.20;67.80;;;;;;5011223;28;20426;-56
2023/06/07 00:08:29;;;;;;;6.80;5.97;;;13.10;68.30;;;;;;5012551;28;20426;-57
2023/06/07 00:10:56;;;;;;;7.03;5.50;;;13.10;69.20;;;;;;5014285;28;20430;-57
2023/06/07 00:13:21;;;;;;;6.53;4.73;;;13.10;69.70;;;;;;5012164;28;20458;-56
2023/06/07 00:15:47;;;;;;;8.63;5.77;;;13.10;70.20;;;;;;5018292;28;20428;-56
2023/06/07 00:18:14;;;;;;;5.87;5.23;;;13.00;70.70;;;;;;5016021;28;20263;-57
2023/06/07 00:20:49;;;;;;;5.40;4.90;;;13.00;71.10;;;;;;5015702;28;20176;-56
2023/06/07 00:23:15;;;;;;;7.63;4.73;;;13.00;71.90;;;;;;5012625;28;20536;-56
2023/06/07 00:25:41;;;;;;;5.40;4.57;;;13.00;72.00;;;;;;5009476;28;20422;-57
2023/06/07 00:28:07;;;;;;;6.60;5.07;;;12.90;72.60;;;;;;5018925;28;20427;-57
2023/06/07 00:30:33;;;;;;;6.10;4.63;;;12.90;73.30;;;;;;5007186;28;20884;-55
2023/06/07 00:32:58;;;;;;;5.90;4.43;;;12.90;73.80;;;;;;5009896;28;20684;-58
2023/06/07 00:35:24;;;;;;;9.73;5.47;;;12.80;74.70;;;;;;5011649;28;20176;-56
2023/06/07 00:37:49;;;;;;;6.43;4.83;;;12.80;75.00;;;;;;5012166;28;20227;-56
2023/06/07 00:40:15;;;;;;;7.13;5.20;;;12.80;75.40;;;;;;5012573;28;20192;-55
2023/06/07 00:42:42;;;;;;;11.73;5.37;;;12.70;75.70;;;;;;5017390;28;20302;-57
2023/06/07 00:45:08;;;;;;;5.73;5.17;;;12.70;76.20;;;;;;5018468;28;20175;-54
2023/06/07 00:47:36;;;;;;;5.40;4.90;;;12.70;77.20;;;;;;5019233;28;20480;-56
2023/06/07 00:50:03;;;;;;;5.27;4.77;;;12.70;77.90;;;;;;5017087;28;20436;-57
2023/06/07 00:52:29;;;;;;;5.77;5.00;;;12.70;78.70;;;;;;5014514;28;20822;-56
2023/06/07 00:54:55;;;;;;;5.47;4.73;;;12.60;79.00;;;;;;5015352;28;20426;-57
2023/06/07 00:57:21;;;;;;;5.53;4.93;;;12.60;78.50;;;;;;5011997;28;20275;-54
2023/06/07 00:59:46;;;;;;;6.30;5.57;;;12.60;78.90;;;;;;5015762;28;20754;-54
2023/06/07 01:02:15;;;;;;;7.50;5.27;;;12.50;78.90;;;;;;5017595;28;20208;-57
2023/06/07 01:04:42;;;;;;;6.80;5.50;;;12.50;79.30;;;;;;5019831;28;20184;-56
2023/06/07 01:07:08;;;;;;;6.60;5.23;;;12.50;80.20;;;;;;5018438;28;20442;-56
2023/06/07 01:09:35;;;;;;;7.33;5.57;;;12.50;80.50;;;;;;5017377;28;20430;-55
2023/06/07 01:12:03;;;;;;;14.83;5.30;;;12.40;81.40;;;;;;5015799;28;20993;-56
2023/06/07 01:14:30;;;;;;;10.50;5.80;;;12.40;82.90;;;;;;5011577;28;20491;-57
2023/06/07 01:16:57;;;;;;;5.10;4.60;;;12.30;84.30;;;;;;5014917;28;20438;-56
2023/06/07 01:19:27;;;;;;;5.83;5.33;;;12.30;85.00;;;;;;5015640;28;22439;-56
2023/06/07 01:22:04;;;;;;;9.17;5.40;;;12.20;86.30;;;;;;5018986;28;21215;-57
2023/06/07 01:24:30;;;;;;;5.93;5.20;;;12.20;87.30;;;;;;5019034;28;20492;-56
2023/06/07 01:26:57;;;;;;;5.93;5.10;;;12.20;89.10;;;;;;5016526;28;20435;-55
2023/06/07 01:29:25;;;;;;;6.00;4.97;;;12.20;89.90;;;;;;5022478;28;20183;-55
2023/06/07 01:31:53;;;;;;;9.53;5.57;;;12.10;90.00;;;;;;5022539;28;20454;-56
2023/06/07 01:34:20;;;;;;;7.87;5.37;;;12.10;90.50;;;;;;5025023;28;20431;-56
2023/06/07 01:36:47;;;;;;;8.20;5.60;;;12.10;90.30;;;;;;5022540;28;20503;-55
2023/06/07 01:39:14;;;;;;;5.53;5.03;;;12.00;90.60;;;;;;5010880;28;20434;-55
2023/06/07 01:41:41;;;;;;;8.10;4.93;;;12.00;90.60;;;;;;5020309;28;20493;-58
2023/06/07 01:44:08;;;;;;;7.03;5.47;;;12.00;91.20;;;;;;5017014;28;20427;-57
2023/06/07 01:46:34;;;;;;;9.63;6.37;;;12.00;91.90;;;;;;5021651;28;20466;-57
2023/06/07 01:49:02;;;;;;;5.90;5.10;;;11.90;92.10;;;;;;5015972;28;20529;-55
2023/06/07 01:51:28;;;;;;;8.00;5.43;;;11.90;92.40;;;;;;5017321;28;20462;-56
2023/06/07 01:53:54;;;;;;;6.70;5.53;;;11.90;92.50;;;;;;5019096;28;22583;-56
2023/06/07 01:56:25;;;;;;;7.10;5.57;;;11.80;92.50;;;;;;5019769;28;20250;-56
2023/06/07 01:59:14;;;;;;;6.73;5.97;;;11.70;93.20;;;;;;5014952;28;20525;-56
2023/06/07 02:01:55;;;;;;;7.40;6.50;;;11.70;93.70;;;;;;5015483;28;21010;-58
2023/06/07 02:04:25;;;;;;;8.43;5.60;;;11.70;94.90;;;;;;5017555;28;20423;-56
2023/06/07 02:06:54;;;;;;;16.23;5.77;;;11.60;94.60;;;;;;5018093;28;20493;-55
2023/06/07 02:09:22;;;;;;;7.93;5.60;;;11.60;94.50;;;;;;5013064;28;20561;-54
2023/06/07 02:11:49;;;;;;;7.30;5.87;;;11.60;94.80;;;;;;5016645;28;20445;-56
2023/06/07 02:14:17;;;;;;;10.33;5.70;;;11.50;95.10;;;;;;5011432;28;22242;-56
2023/06/07 02:16:43;;;;;;;5.80;5.23;;;11.50;95.60;;;;;;5008125;28;21224;-55
2023/06/07 02:19:09;;;;;;;8.47;5.60;;;11.50;95.90;;;;;;5013980;28;20434;-56
2023/06/07 02:21:36;;;;;;;5.63;4.83;;;11.50;96.80;;;;;;5012504;28;20196;-55
2023/06/07 02:24:02;;;;;;;7.00;5.37;;;11.40;96.70;;;;;;5013321;28;20431;-55
2023/06/07 02:26:28;;;;;;;6.83;5.70;;;11.40;96.60;;;;;;5015527;28;20445;-57
2023/06/07 02:28:54;;;;;;;7.40;5.83;;;11.40;96.50;;;;;;5013634;28;20435;-57
2023/06/07 02:31:20;;;;;;;6.67;5.97;;;11.40;97.20;;;;;;5020801;28;20876;-56
2023/06/07 02:33:49;;;;;;;9.63;5.97;;;11.30;97.50;;;;;;5015721;28;20266;-55
2023/06/07 02:36:15;;;;;;;9.47;6.17;;;11.30;97.80;;;;;;5018809;28;20184;-56
2023/06/07 02:38:41;;;;;;;6.37;5.73;;;11.30;98.50;;;;;;5011278;28;21012;-56
2023/06/07 02:41:07;;;;;;;7.50;6.07;;;11.30;98.80;;;;;;5016795;28;20185;-54
2023/06/07 02:43:32;;;;;;;7.60;6.03;;;11.30;99.80;;;;;;5011787;28;21413;-56
2023/06/07 02:45:58;;;;;;;7.50;6.67;;;11.30;99.70;;;;;;5014087;28;20238;-55
2023/06/07 02:48:23;;;;;;;9.10;6.53;;;11.30;99.30;;;;;;5017090;28;20226;-55
2023/06/07 02:50:49;;;;;;;6.60;5.90;;;11.30;99.20;;;;;;5016163;28;20738;-56
2023/06/07 02:53:15;;;;;;;7.10;5.87;;;11.30;99.00;;;;;;5014602;28;20196;-55
2023/06/07 02:55:40;;;;;;;6.50;5.90;;;11.20;99.10;;;;;;5018227;28;20294;-56
2023/06/07 02:58:06;;;;;;;7.00;6.30;;;11.20;99.20;;;;;;5013905;28;20275;-53
2023/06/07 03:00:32;;;;;;;7.50;5.70;;;11.20;99.40;;;;;;5017464;28;20195;-55
2023/06/07 03:02:58;;;;;;;6.90;6.20;;;11.10;99.40;;;;;;5012584;28;20458;-56
2023/06/07 03:05:26;;;;;;;7.53;5.93;;;11.10;99.90;;;;;;5019762;28;20180;-56
2023/06/07 03:07:52;;;;;;;8.33;5.80;;;11.10;99.90;;;;;;5017736;28;20230;-56
2023/06/07 03:10:18;;;;;;;8.63;6.00;;;11.00;99.90;;;;;;5014214;28;20436;-56
2023/06/07 03:12:44;;;;;;;6.37;5.70;;;11.00;99.90;;;;;;5018743;28;20458;-57
2023/06/07 03:15:10;;;;;;;7.87;6.13;;;11.00;99.90;;;;;;5018800;28;21024;-55
2023/06/07 03:17:36;;;;;;;5.93;5.33;;;11.00;99.90;;;;;;5020528;28;20203;-55
2023/06/07 03:20:04;;;;;;;7.57;6.77;;;10.90;99.90;;;;;;5016322;28;20180;-58
2023/06/07 03:22:30;;;;;;;7.73;5.30;;;10.90;99.90;;;;;;5013659;28;20474;-57
2023/06/07 03:24:57;;;;;;;8.87;6.07;;;10.90;99.90;;;;;;5015081;28;20443;-54
2023/06/07 03:27:23;;;;;;;6.77;5.70;;;10.90;99.90;;;;;;5019006;28;20176;-55
2023/06/07 03:29:50;;;;;;;6.00;5.40;;;10.90;99.90;;;;;;5019957;28;20431;-56
2023/06/07 03:32:16;;;;;;;7.83;5.73;;;10.80;99.90;;;;;;5025447;28;20470;-55
2023/06/07 03:34:42;;;;;;;6.10;5.50;;;10.80;99.90;;;;;;5028052;28;20450;-55
2023/06/07 03:37:08;;;;;;;6.73;5.70;;;10.80;99.90;;;;;;5018996;28;20192;-57
2023/06/07 03:39:35;;;;;;;7.60;5.80;;;10.80;99.90;;;;;;5025600;28;20430;-56
2023/06/07 03:42:01;;;;;;;6.50;5.90;;;10.80;99.90;;;;;;5025542;28;20469;-56
2023/06/07 03:44:27;;;;;;;9.80;5.93;;;10.70;99.90;;;;;;5024429;28;20423;-58
2023/06/07 03:46:52;;;;;;;10.13;5.60;;;10.80;99.90;;;;;;5017696;28;20191;-55
2023/06/07 03:49:18;;;;;;;7.67;5.27;;;10.70;99.90;;;;;;5016523;28;20283;-55
2023/06/07 03:51:43;;;;;;;6.13;5.13;;;10.70;99.90;;;;;;5016432;28;20697;-57
2023/06/07 03:54:10;;;;;;;7.47;5.70;;;10.70;99.90;;;;;;5014042;28;20246;-57
2023/06/07 03:56:36;;;;;;;6.83;5.87;;;10.70;99.90;;;;;;5016116;28;20242;-58
2023/06/07 03:59:01;;;;;;;6.83;5.77;;;10.70;99.90;;;;;;5016133;28;20438;-54
2023/06/07 04:01:27;;;;;;;6.43;5.80;;;10.70;99.90;;;;;;5016186;28;20469;-55
2023/06/07 04:03:53;;;;;;;15.60;9.40;;;10.70;99.90;;;;;;5010672;28;20203;-57
2023/06/07 04:06:24;;;;;;;12.50;7.90;;;10.70;99.90;;;;;;5013138;28;20172;-56
2023/06/07 04:08:51;;;;;;;10.03;6.20;;;10.70;99.90;;;;;;5011711;28;20187;-56
2023/06/07 04:11:20;;;;;;;8.63;6.20;;;10.70;99.90;;;;;;5011708;28;20470;-53
2023/06/07 04:13:46;;;;;;;8.27;6.30;;;10.70;99.90;;;;;;5015069;28;20469;-56
2023/06/07 04:16:11;;;;;;;9.03;6.90;;;10.80;99.90;;;;;;5010615;28;20525;-54
2023/06/07 04:18:37;;;;;;;8.63;5.70;;;10.80;99.90;;;;;;5015948;28;20241;-55
2023/06/07 04:21:03;;;;;;;9.93;6.93;;;10.80;99.90;;;;;;5019299;28;20190;-56
2023/06/07 04:23:29;;;;;;;8.80;6.33;;;10.80;99.90;;;;;;5017527;28;20234;-55
2023/06/07 04:25:55;;;;;;;8.00;5.80;;;10.90;99.90;;;;;;5007053;28;20442;-55
2023/06/07 04:28:24;;;;;;;8.70;6.67;;;10.90;99.90;;;;;;5012324;28;20532;-56
2023/06/07 04:30:51;;;;;;;9.50;6.50;;;10.90;99.90;;;;;;5010409;28;20175;-56
2023/06/07 04:33:19;;;;;;;9.50;6.70;;;11.00;99.90;;;;;;5012559;28;20920;-56
2023/06/07 04:35:46;;;;;;;8.90;6.20;;;11.00;99.90;;;;;;5011397;28;20441;-56
2023/06/07 04:38:15;;;;;;;8.20;6.00;;;11.00;99.90;;;;;;5012618;28;20453;-57
2023/06/07 04:40:42;;;;;;;8.30;5.93;;;11.00;99.90;;;;;;5016542;28;20525;-55
2023/06/07 04:43:10;;;;;;;6.83;6.13;;;11.00;99.90;;;;;;5014224;28;21351;-57
2023/06/07 04:45:39;;;;;;;7.63;6.30;;;11.10;99.90;;;;;;5013488;28;20427;-55
2023/06/07 04:48:07;;;;;;;7.40;6.30;;;11.10;99.90;;;;;;5018593;28;20427;-59
2023/06/07 04:50:38;;;;;;;8.23;6.23;;;11.10;99.90;;;;;;5016313;28;20434;-57
2023/06/07 04:53:04;;;;;;;9.33;7.17;;;11.20;99.90;;;;;;5014866;28;20449;-59
2023/06/07 04:55:35;;;;;;;9.50;6.37;;;11.20;99.90;;;;;;5008724;28;21270;-56
2023/06/07 04:58:04;;;;;;;9.60;5.50;;;11.20;99.90;;;;;;5017751;28;20184;-56
2023/06/07 05:00:31;;;;;;;7.40;5.60;;;11.30;99.90;;;;;;5016358;28;20449;-56
2023/06/07 05:02:58;;;;;;;8.23;6.50;;;11.30;99.90;;;;;;5009364;28;20473;-58
2023/06/07 05:05:24;;;;;;;7.13;6.37;;;11.30;99.90;;;;;;5016186;28;20480;-56
2023/06/07 05:07:49;;;;;;;8.47;6.17;;;11.40;99.90;;;;;;5013764;28;20426;-56
2023/06/07 05:10:18;;;;;;;11.30;6.63;;;11.50;99.90;;;;;;5018955;28;20176;-56
2023/06/07 05:12:44;;;;;;;8.33;6.50;;;11.60;99.90;;;;;;5017642;28;20262;-56
2023/06/07 05:15:10;;;;;;;6.20;5.60;;;11.70;99.90;;;;;;5024554;28;20436;-57
2023/06/07 05:17:38;;;;;;;6.60;5.73;;;11.70;99.90;;;;;;5019586;28;20437;-53
2023/06/07 05:20:10;;;;;;;11.30;6.50;;;11.80;99.90;;;;;;5020982;28;20926;-55
2023/06/07 05:22:39;;;;;;;6.80;5.77;;;11.90;99.90;;;;;;5017415;28;20466;-54
2023/06/07 05:25:06;;;;;;;10.13;6.17;;;12.00;99.90;;;;;;5023249;28;20430;-55
2023/06/07 05:27:32;;;;;;;7.73;6.67;;;12.10;99.90;;;;;;5019394;28;20426;-55
2023/06/07 05:29:58;;;;;;;11.50;6.43;;;12.10;99.90;;;;;;5019927;28;20856;-57
2023/06/07 05:32:23;;;;;;;11.23;7.10;;;12.30;98.80;;;;;;5021717;28;20230;-58
2023/06/07 05:34:51;;;;;;;13.93;8.60;;;12.30;98.60;;;;;;5022573;28;20665;-56
2023/06/07 05:37:18;;;;;;;16.10;9.60;;;12.40;98.60;;;;;;5024900;28;20188;-56
2023/06/07 05:39:45;;;;;;;14.83;9.30;;;12.50;97.80;;;;;;5026175;28;20443;-57
2023/06/07 05:42:11;;;;;;;16.83;9.43;;;12.60;98.10;;;;;;5022521;28;20556;-56
2023/06/07 05:44:37;;;;;;;15.70;10.90;;;12.60;98.40;;;;;;5023299;28;20456;-56
2023/06/07 05:47:03;;;;;;;15.97;11.17;;;12.70;98.20;;;;;;5027338;28;20904;-56
2023/06/07 05:49:28;;;;;;;11.90;9.10;;;12.80;98.00;;;;;;5024809;28;20610;-56
2023/06/07 05:51:54;;;;;;;16.37;10.07;;;12.90;97.60;;;;;;5020221;28;20199;-56
2023/06/07 05:54:20;;;;;;;11.40;9.90;;;13.00;97.40;;;;;;5021271;28;20546;-57
2023/06/07 05:56:45;;;;;;;12.10;8.90;;;13.00;97.80;;;;;;5020613;28;20238;-57
2023/06/07 05:59:11;;;;;;;13.70;10.47;;;13.10;97.70;;;;;;5019760;28;20183;-56
2023/06/07 06:01:37;;;;;;;20.50;10.60;;;13.30;97.50;;;;;;5016447;28;20232;-57
2023/06/07 06:04:03;;;;;;;12.33;10.87;;;13.30;96.80;;;;;;5014976;28;20467;-58
2023/06/07 06:06:28;;;;;;;10.53;9.03;;;13.40;97.40;;;;;;5012137;28;20303;-57
2023/06/07 06:08:54;;;;;;;10.40;8.20;;;13.50;97.60;;;;;;5013588;28;20414;-58
2023/06/07 06:11:20;;;;;;;15.23;8.10;;;13.60;98.00;;;;;;5011604;28;20232;-58
2023/06/07 06:13:48;;;;;;;11.33;8.57;;;13.70;97.80;;;;;;5012896;28;20926;-56
2023/06/07 06:16:14;;;;;;;14.03;8.37;;;13.80;96.00;;;;;;5015343;28;20527;-58
2023/06/07 06:18:43;;;;;;;9.83;7.50;;;13.90;96.00;;;;;;5010573;28;20538;-57
2023/06/07 06:21:08;;;;;;;9.30;7.53;;;14.00;95.80;;;;;;5014431;28;20785;-56
2023/06/07 06:23:35;;;;;;;10.33;8.30;;;14.10;95.60;;;;;;5013238;28;20466;-56
2023/06/07 06:26:01;;;;;;;13.93;9.37;;;14.20;94.80;;;;;;5013907;28;20233;-57
2023/06/07 06:28:28;;;;;;;12.03;8.30;;;14.40;93.80;;;;;;5010713;28;20446;-57
2023/06/07 06:30:54;;;;;;;10.03;8.00;;;14.50;93.10;;;;;;5015525;28;20533;-58
2023/06/07 06:33:20;;;;;;;13.00;9.40;;;14.60;92.70;;;;;;5015115;28;20485;-58
2023/06/07 06:35:46;;;;;;;20.40;10.07;;;14.70;91.70;;;;;;5014400;28;20924;-58
2023/06/07 06:38:12;;;;;;;17.93;11.57;;;14.80;91.50;;;;;;5014519;28;20203;-59
2023/06/07 06:40:38;;;;;;;21.93;12.67;;;14.90;91.10;;;;;;5014095;28;20465;-58
2023/06/07 06:43:04;;;;;;;21.60;12.30;;;15.00;90.80;;;;;;5011669;28;22406;-55
2023/06/07 06:45:29;;;;;;;13.50;11.37;;;15.10;90.50;;;;;;5016303;28;20176;-58
2023/06/07 06:47:58;;;;;;;13.00;8.83;;;15.20;90.60;;;;;;5020034;28;20743;-58
2023/06/07 06:50:24;;;;;;;9.53;8.30;;;15.40;90.00;;;;;;5016272;28;20211;-57
2023/06/07 06:52:50;;;;;;;9.00;7.57;;;15.50;91.50;;;;;;5017000;28;20489;-58
2023/06/07 06:55:15;;;;;;;7.90;6.20;;;15.70;89.60;;;;;;5010181;28;20456;-57
2023/06/07 06:57:41;;;;;;;9.73;6.50;;;15.80;84.90;;;;;;5011593;28;20224;-57
2023/06/07 07:00:10;;;;;;;7.17;5.53;;;15.90;84.80;;;;;;5015146;28;20192;-56
2023/06/07 07:02:36;;;;;;;10.40;6.60;;;16.10;83.50;;;;;;5014985;28;20200;-58
2023/06/07 07:05:03;;;;;;;7.47;6.57;;;16.20;85.30;;;;;;5016809;28;20445;-58
2023/06/07 07:07:29;;;;;;;9.70;5.27;;;16.40;82.50;;;;;;5013730;28;20180;-57
2023/06/07 07:09:55;;;;;;;7.40;5.60;;;16.50;79.10;;;;;;5015408;28;20439;-59
2023/06/07 07:12:23;;;;;;;8.87;4.90;;;16.60;77.20;;;;;;5015953;28;20817;-58
2023/06/07 07:14:49;;;;;;;7.33;5.57;;;16.70;77.50;;;;;;5013291;28;20180;-57
2023/06/07 07:17:15;;;;;;;14.33;5.50;;;16.80;77.50;;;;;;5017152;28;20438;-57
2023/06/07 07:19:41;;;;;;;10.17;5.17;;;17.00;78.10;;;;;;5012912;28;20207;-58
2023/06/07 07:22:07;;;;;;;5.70;4.60;;;17.10;77.10;;;;;;5014140;28;21279;-58
2023/06/07 07:24:33;;;;;;;5.33;4.50;;;17.30;75.10;;;;;;5020156;28;20625;-57
2023/06/07 07:26:58;;;;;;;11.80;4.57;;;17.40;71.10;;;;;;5013526;28;20183;-57
2023/06/07 07:29:24;;;;;;;6.97;5.13;;;17.50;68.20;;;;;;5016515;28;20278;-58
2023/06/07 07:31:50;;;;;;;9.27;4.33;;;17.50;67.80;;;;;;5019311;28;20331;-57
2023/06/07 07:34:16;;;;;;;6.10;5.13;;;17.60;68.00;;;;;;5021614;28;20906;-58
2023/06/07 07:36:44;;;;;;;5.93;4.30;;;17.60;66.80;;;;;;5012142;28;20195;-57
2023/06/07 07:39:10;;;;;;;9.50;5.57;;;17.70;66.80;;;;;;5019109;28;20606;-58
2023/06/07 07:41:37;;;;;;;7.97;4.90;;;17.80;68.40;;;;;;5019066;28;20469;-58
2023/06/07 07:44:02;;;;;;;6.93;4.60;;;17.90;68.50;;;;;;5020613;28;20557;-56
2023/06/07 07:46:28;;;;;;;6.37;4.27;;;18.10;67.20;;;;;;5018674;28;21092;-57
2023/06/07 07:48:53;;;;;;;5.60;4.57;;;18.20;65.80;;;;;;5008227;28;20187;-58
2023/06/07 07:51:19;;;;;;;6.37;4.93;;;18.40;65.00;;;;;;5017328;28;20315;-57
2023/06/07 07:53:45;;;;;;;5.97;4.70;;;18.50;64.00;;;;;;5009708;28;20674;-57
2023/06/07 07:56:11;;;;;;;6.20;4.13;;;18.60;64.00;;;;;;5017211;28;20562;-53
2023/06/07 07:58:37;;;;;;;7.73;4.50;;;18.60;63.00;;;;;;5007720;28;20275;-56
2023/06/07 08:01:03;;;;;;;5.63;4.80;;;18.60;62.00;;;;;;5015113;28;20180;-57
2023/06/07 08:03:29;;;;;;;7.30;4.60;;;18.60;61.40;;;;;;5015167;28;20721;-58
2023/06/07 08:05:55;;;;;;;6.77;4.80;;;18.60;60.30;;;;;;5010706;28;20430;-59
2023/06/07 08:08:21;;;;;;;6.10;5.20;;;18.50;60.50;;;;;;5013339;28;20546;-59
2023/06/07 08:10:48;;;;;;;10.17;4.30;;;18.50;61.30;;;;;;5017094;28;20176;-59
2023/06/07 08:13:14;;;;;;;7.47;5.00;;;18.60;62.40;;;;;;5014033;28;20489;-58
2023/06/07 08:15:40;;;;;;;7.30;4.60;;;18.70;61.10;;;;;;5012101;28;20464;-57
2023/06/07 08:18:06;;;;;;;8.07;4.13;;;18.70;60.30;;;;;;5019165;28;20464;-59
2023/06/07 08:20:32;;;;;;;6.30;3.97;;;18.80;60.70;;;;;;5011692;28;20449;-58
2023/06/07 08:22:57;;;;;;;4.37;3.97;;;18.90;60.50;;;;;;5019918;28;20204;-59
2023/06/07 08:25:23;;;;;;;4.50;4.07;;;19.10;60.60;;;;;;5017202;28;20184;-57
2023/06/07 08:27:49;;;;;;;7.70;3.73;;;19.20;59.60;;;;;;5014303;28;21238;-58
2023/06/07 08:30:15;;;;;;;6.40;3.87;;;19.40;59.20;;;;;;5020372;28;21205;-57
2023/06/07 08:32:42;;;;;;;5.67;3.83;;;19.50;58.40;;;;;;5014474;28;20672;-58
2023/06/07 08:35:09;;;;;;;6.17;3.90;;;19.60;57.80;;;;;;5017840;28;20199;-60
2023/06/07 08:37:35;;;;;;;5.00;3.93;;;19.70;57.20;;;;;;5014921;28;20489;-58
2023/06/07 08:40:02;;;;;;;12.47;4.20;;;19.70;56.70;;;;;;5010794;28;20636;-58
2023/06/07 08:42:28;;;;;;;15.20;3.90;;;19.80;56.70;;;;;;5016491;28;20246;-55
2023/06/07 08:44:53;;;;;;;6.40;4.47;;;19.90;56.00;;;;;;5018434;28;20457;-58
2023/06/07 08:47:22;;;;;;;4.10;3.70;;;19.90;55.70;;;;;;5016152;28;20678;-58
2023/06/07 08:49:53;;;;;;;4.77;3.67;;;20.10;55.20;;;;;;5017151;28;20207;-58
2023/06/07 08:52:18;;;;;;;6.40;4.30;;;20.20;54.60;;;;;;5020503;28;20458;-56
2023/06/07 08:54:47;;;;;;;4.13;3.73;;;20.30;54.60;;;;;;5022275;28;21100;-57
2023/06/07 08:57:18;;;;;;;5.37;3.57;;;20.40;53.90;;;;;;5017269;28;20200;-58
2023/06/07 08:59:45;;;;;;;7.67;3.90;;;20.60;53.30;;;;;;5016957;28;20441;-58
2023/06/07 09:02:14;;;;;;;8.03;3.60;;;20.70;52.80;;;;;;5023633;28;20466;-55
2023/06/07 09:04:40;;;;;;;6.43;3.90;;;20.80;52.20;;;;;;5017312;28;20776;-53
2023/06/07 09:07:07;;;;;;;9.53;4.03;;;20.90;51.80;;;;;;5017047;28;20430;-51
2023/06/07 09:09:39;;;;;;;10.47;4.10;;;21.10;51.50;;;;;;5016426;28;20529;-53
2023/06/07 09:12:05;;;;;;;4.30;3.50;;;21.20;50.90;;;;;;5017098;28;20501;-55
2023/06/07 09:14:31;;;;;;;5.50;4.10;;;21.30;50.50;;;;;;5006330;28;20502;-57
2023/06/07 09:16:59;;;;;;;4.17;3.70;;;21.40;49.80;;;;;;5016574;28;21137;-54
2023/06/07 09:19:39;;;;;;;6.47;3.80;;;21.50;48.70;;;;;;5013139;28;20630;-58
2023/06/07 09:22:06;;;;;;;4.00;3.60;;;21.50;47.80;;;;;;5014189;28;20554;-56
2023/06/07 09:24:33;;;;;;;5.80;4.00;;;21.40;47.10;;;;;;5015976;28;20454;-57
2023/06/07 09:27:03;;;;;;;5.80;4.50;;;21.10;47.00;;;;;;5011496;28;20550;-58
2023/06/07 09:29:29;;;;;;;4.40;4.00;;;20.90;46.30;;;;;;5019090;28;20807;-58
2023/06/07 09:32:23;;;;;;;4.97;4.00;;;20.80;46.40;;;;;;5014734;28;20463;-57
2023/06/07 09:34:49;;;;;;;4.47;4.07;;;20.80;46.40;;;;;;5015870;28;20486;-58
2023/06/07 09:37:20;;;;;;;7.33;4.07;;;20.90;46.50;;;;;;5023045;28;20451;-58
2023/06/07 09:39:50;;;;;;;4.33;3.83;;;21.00;46.70;;;;;;5021204;28;20927;-57
2023/06/07 09:42:16;;;;;;;7.77;3.57;;;21.20;46.30;;;;;;5014747;28;20914;-57
2023/06/07 09:44:42;;;;;;;4.30;3.90;;;21.30;45.40;;;;;;5017048;28;20449;-55
2023/06/07 09:47:22;;;;;;;5.70;4.20;;;21.50;45.10;;;;;;5018347;28;20921;-57
2023/06/07 09:49:48;;;;;;;5.60;3.80;;;21.50;46.10;;;;;;5026365;28;20436;-58
2023/06/07 09:52:15;;;;;;;7.93;3.57;;;21.60;45.40;;;;;;5020667;28;20442;-57
2023/06/07 09:54:42;;;;;;;5.27;4.37;;;21.50;45.00;;;;;;5013299;28;20177;-57
2023/06/07 09:57:11;;;;;;;5.07;4.10;;;21.50;45.50;;;;;;5016989;28;20733;-58
2023/06/07 09:59:37;;;;;;;8.10;5.13;;;21.40;45.10;;;;;;5018421;28;20418;-58
2023/06/07 10:02:25;;;;;;;5.20;4.17;;;21.40;47.10;;;;;;5017047;28;20489;-57
2023/06/07 10:04:53;;;;;;;4.90;4.33;;;21.80;48.20;;;;;;5018271;28;21107;-58
2023/06/07 10:07:21;;;;;;;10.37;4.17;;;22.10;47.00;;;;;;5013613;28;20485;-56
2023/06/07 10:09:51;;;;;;;5.43;4.30;;;22.40;46.20;;;;;;5017390;28;20912;-56
2023/06/07 10:12:20;;;;;;;6.43;4.13;;;22.70;46.20;;;;;;5013674;28;20977;-58
2023/06/07 10:14:47;;;;;;;5.50;4.10;;;22.90;45.90;;;;;;5017024;28;20425;-57
2023/06/07 10:17:15;;;;;;;6.13;4.30;;;23.10;45.00;;;;;;5012265;28;20895;-58
2023/06/07 10:19:44;;;;;;;6.37;3.53;;;23.30;44.30;;;;;;5009370;28;20879;-56
2023/06/07 10:22:16;;;;;;;7.33;4.40;;;23.50;43.80;;;;;;5016247;28;20521;-58
2023/06/07 10:25:02;;;;;;;4.10;3.70;;;23.60;43.50;;;;;;5019009;28;20435;-57
2023/06/07 10:27:33;;;;;;;4.13;3.60;;;23.80;42.60;;;;;;5017771;28;21083;-57
2023/06/07 10:30:01;;;;;;;4.60;3.43;;;23.80;43.00;;;;;;5012311;28;20431;-57
2023/06/07 10:32:33;;;;;;;7.50;3.97;;;23.80;42.70;;;;;;5012666;28;21481;-57
2023/06/07 10:35:01;;;;;;;4.53;3.63;;;23.80;43.40;;;;;;5016808;28;20492;-57
2023/06/07 10:37:33;;;;;;;4.53;4.03;;;23.90;43.40;;;;;;5018064;28;20537;-57
2023/06/07 10:40:09;;;;;;;8.53;4.10;;;24.10;43.50;;;;;;5020468;28;20427;-57
2023/06/07 10:42:37;;;;;;;4.37;3.77;;;24.30;42.90;;;;;;5020952;28;20505;-58
2023/06/07 10:45:03;;;;;;;5.37;3.70;;;24.40;40.60;;;;;;5012296;28;20458;-56
2023/06/07 10:47:29;;;;;;;4.70;3.83;;;24.30;39.90;;;;;;5020005;28;20461;-58
2023/06/07 10:49:56;;;;;;;4.77;4.23;;;24.30;39.90;;;;;;5011603;28;20442;-57
2023/06/07 10:52:22;;;;;;;13.30;4.23;;;24.40;40.60;;;;;;5010898;28;20458;-57
2023/06/07 10:54:49;;;;;;;5.13;4.30;;;24.50;41.30;;;;;;5003495;28;20438;-54
2023/06/07 10:57:34;;;;;;;9.13;4.10;;;24.60;39.10;;;;;;5005597;28;20431;-58
2023/06/07 11:00:30;;;;;;;5.80;3.90;;;24.60;40.70;;;;;;5011169;28;20449;-56
2023/06/07 11:03:04;;;;;;;4.63;4.03;;;24.90;40.90;;;;;;5010767;28;20513;-58
2023/06/07 11:05:55;;;;;;;6.70;4.10;;;25.10;40.80;;;;;;5018271;28;20762;-58
2023/06/07 11:08:27;;;;;;;6.33;4.30;;;25.30;40.80;;;;;;5014855;28;21166;-57
2023/06/07 11:10:58;;;;;;;5.57;3.97;;;25.50;38.90;;;;;;5008013;28;20537;-58
2023/06/07 11:13:44;;;;;;;6.13;4.17;;;25.60;38.10;;;;;;5008401;28;20480;-58
2023/06/07 11:16:28;;;;;;;13.13;4.03;;;25.60;38.90;;;;;;5010298;28;20454;-57
2023/06/07 11:19:03;;;;;;;5.13;4.20;;;25.70;40.60;;;;;;5006561;28;21331;-55
2023/06/07 11:21:30;;;;;;;5.13;3.93;;;25.60;38.60;;;;;;5003526;28;20458;-55
2023/06/07 11:24:12;;;;;;;5.10;4.43;;;25.20;38.20;;;;;;5006335;28;20515;-56
2023/06/07 11:26:38;;;;;;;4.73;4.10;;;25.00;38.70;;;;;;5011386;28;20943;-54
2023/06/07 11:29:05;;;;;;;10.50;4.60;;;24.90;39.30;;;;;;5004237;28;20453;-55
2023/06/07 11:31:31;;;;;;;6.30;4.00;;;25.10;40.40;;;;;;5005466;28;20295;-56
2023/06/07 11:33:56;;;;;;;9.67;4.20;;;25.30;38.80;;;;;;5018735;28;20525;-58
2023/06/07 11:36:22;;;;;;;6.77;4.07;;;25.60;39.20;;;;;;5012698;28;20207;-57
2023/06/07 11:38:56;;;;;;;5.00;4.50;;;25.70;37.30;;;;;;5012146;28;20427;-56
2023/06/07 11:41:23;;;;;;;5.10;4.00;;;25.90;37.60;;;;;;5003525;28;20179;-56
2023/06/07 11:43:49;;;;;;;4.90;4.20;;;26.00;36.30;;;;;;5011841;28;20954;-56
2023/06/07 11:46:16;;;;;;;7.40;4.70;;;25.90;36.10;;;;;;5014439;28;20441;-56
2023/06/07 11:48:42;;;;;;;4.53;4.00;;;25.70;36.30;;;;;;5013089;28;20263;-55
2023/06/07 11:51:07;;;;;;;4.87;4.40;;;25.60;37.10;;;;;;5009646;28;20427;-56
2023/06/07 11:53:33;;;;;;;4.50;4.00;;;25.70;38.30;;;;;;5008419;28;20300;-56
2023/06/07 11:56:00;;;;;;;9.20;4.63;;;26.00;38.70;;;;;;5007834;28;20206;-56
2023/06/07 11:58:26;;;;;;;9.03;3.90;;;26.40;38.50;;;;;;5002493;28;20175;-55
2023/06/07 12:00:52;;;;;;;3.70;3.40;;;26.40;36.50;;;;;;5006497;28;20441;-54
2023/06/07 12:03:20;;;;;;;7.20;4.17;;;26.10;35.20;;;;;;5012068;28;20194;-56
2023/06/07 12:05:47;;;;;;;4.90;3.87;;;25.80;36.90;;;;;;5008042;28;20440;-56
2023/06/07 12:08:15;;;;;;;5.40;3.87;;;25.60;37.50;;;;;;5010507;28;20434;-57
2023/06/07 12:10:41;;;;;;;10.30;4.90;;;25.60;38.60;;;;;;5007823;28;20438;-56
2023/06/07 12:13:09;;;;;;;5.60;4.20;;;25.60;39.40;;;;;;5010840;28;20469;-57
2023/06/07 12:15:46;;;;;;;5.13;4.63;;;25.50;39.30;;;;;;5006678;28;20525;-55
2023/06/07 12:18:13;;;;;;;5.60;4.20;;;25.50;39.70;;;;;;5010300;28;20496;-55
2023/06/07 12:20:43;;;;;;;5.40;4.10;;;25.50;39.50;;;;;;5018673;28;20438;-57
2023/06/07 12:23:11;;;;;;;5.27;4.13;;;25.40;39.30;;;;;;5016361;28;20469;-56
2023/06/07 12:25:37;;;;;;;6.83;4.30;;;25.10;39.90;;;;;;5020129;28;21138;-57
2023/06/07 12:28:05;;;;;;;18.50;6.43;;;24.90;39.60;;;;;;5018207;28;20495;-56
2023/06/07 12:30:35;;;;;;;6.00;4.40;;;24.60;40.40;;;;;;5018603;28;21341;-56
2023/06/07 12:33:01;;;;;;;8.37;4.20;;;24.50;40.60;;;;;;5022244;28;20460;-57
2023/06/07 12:35:38;;;;;;;5.90;3.73;;;24.40;39.70;;;;;;5018202;28;20499;-57
2023/06/07 12:38:07;;;;;;;6.33;4.40;;;24.30;39.20;;;;;;5021749;28;20191;-56
2023/06/07 12:40:33;;;;;;;7.50;4.63;;;24.30;38.80;;;;;;5019845;28;20515;-57
2023/06/07 12:42:59;;;;;;;4.87;4.37;;;24.60;39.60;;;;;;5019433;28;21293;-56
2023/06/07 12:45:24;;;;;;;5.70;4.60;;;25.00;40.00;;;;;;5023578;28;20716;-57
2023/06/07 12:47:51;;;;;;;4.70;4.00;;;25.10;38.10;;;;;;5022001;28;20295;-57